This is the latest recevied weather packets stored in our database for station/object OE7BJT-13. If no packets are shown the sender has not sent any weather packets the latest 10 day(s).
| Time | Temp. | Humidity | Pressure | Rain* | Wind** | Luminosity | Snow |
|---|---|---|---|---|---|---|---|
| 1777799516 | 23.33° C | 37% | 1016 hPa | - | - | - | - |
| 1777798910 | 22.22° C | 37% | 1016 hPa | - | - | - | - |
| 1777797093 | 21.11° C | 40% | 1017 hPa | - | - | - | - |
| 1777795882 | 19.44° C | 43% | 1017 hPa | - | - | - | - |
| 1777795276 | 18.89° C | 43% | 1017 hPa | - | - | - | - |
| 1777792248 | 16.67° C | 51% | 1017 hPa | - | - | - | - |
| 1777791037 | 14.44° C | 58% | 1018 hPa | - | - | - | - |
| 1777789220 | 12.78° C | 66% | 1018 hPa | - | - | - | - |
| 1777788615 | 12.78° C | 70% | 1018 hPa | - | - | - | - |
| 1777788009 | 10.56° C | 78% | 1018 hPa | - | - | - | - |
| 1777786798 | 9.44° C | 83% | 1018 hPa | - | - | - | - |
| 1777785587 | 9.44° C | 83% | 1018 hPa | - | - | - | - |
| 1777784981 | 8.33° C | 86% | 1018 hPa | - | - | - | - |
| 1777784376 | 8.33° C | 91% | 1018 hPa | - | - | - | - |
| 1777783770 | 8.33° C | 88% | 1018 hPa | - | - | - | - |
| 1777783165 | 7.78° C | 91% | 1018 hPa | - | - | - | - |
| 1777781953 | 7.22° C | 94% | 1018 hPa | - | - | - | - |
| 1777781348 | 6.67° C | 94% | 1018 hPa | - | - | - | - |
| 1777780742 | 6.67° C | 96% | 1018 hPa | - | - | - | - |
| 1777780137 | 6.67° C | 93% | 1018 hPa | - | - | - | - |
| 1777779531 | 7.22° C | 91% | 1018 hPa | - | - | - | - |
| 1777778320 | 7.22° C | 90% | 1018 hPa | - | - | - | - |
| 1777777714 | 7.22° C | 93% | 1018 hPa | - | - | - | - |
| 1777777109 | 7.22° C | 90% | 1018 hPa | - | - | - | - |
| 1777776503 | 7.22° C | 91% | 1018 hPa | - | - | - | - |
* Rain since midnight (hover to see other rain measurements)
** Current wind speed in m/s (hover to see current wind gust speed)